Welcome to our new website - Welkom op onze vernieuwde website - Bienvenue sur notre nouveau site web - Willkommen auf unserer neuen Website
Check our progress frequently. Prüfen Sie unsere Fortschritte regelmäßig. Consultez notre progression fréquemment. Komt u straks nog eens

KNMI Weersverwachting is alleen beschikbaar in de Nederlandse Taal, Ongeacht welke taal u kiest.
KNMI weather forecast is only available in the Dutch language, No matter what language you choose.







Meteo Oudkarspel - De weer weet site voor Langedijk

Blijf op de hoogte van het actuele weer, Keep up to date with the current weather.



Lokaal brandgevaar
CBI


Regionaal natuur brand risico: Meer informatie


Mijn Webcam 1 Meer informatie My webcam


Mijn Webcam 2 Meer informatie My webcam 2


Onweer radar Meer informatie blitzortung!


Regen radar Meer informatie rain snow radar


Bezoek onze andere website:

Template - Davis WeatherLink Version
Vantage Veu

Template - Meteotemplate

Template - HomeWeatherStation

PDøROK Multimedia

Meteo Broek Op Langedijk

Visual FM - Serious Internet RadioVisual FM - Serious Internet Radio

Lief LangedijkLief Langedijk

Dé fietsenmaker van Langedijk en omstrekenAxel Noort dé fietsenmaker

Ijsvereniging Volharding

Meteo Tuitjenhorn

Meteo Delfzijl

Weerstation Noordbergum

Weerstation ParkstadWeerstation Parkstad



Het weer levert geen direct gevaar op.    Er zijn geen waarschuwingen afgegeven.

METAR rapporten vliegvelden

   
EHKD - De Kooy (navy), Netherlands
Afstand tot: N 23 km
Gewijzigd: 31-May-2020 15:25
Bewolking  
Bewolking  
   Wind: NO 29.6 km/h
Wind: NO 29.6 km/h
Temperatuur: 19°C
Dauwpunt: 10°C
Vochtigheid: 56%
Barometer: 1024 hPa
Bewolking: Bewolking
Zicht: meer dan 10 km
Bewolking: Bewolking 33000 ft
EHKD 311325Z AUTO 04016KT 360V070 9999 OVC330 19/10 Q1024 BLU 06015G26KT CAVOK
EHAM - Amsterdam/Schiph, Netherlands
Afstand tot: Z 44 km
Gewijzigd: 31-May-2020 15:25
Helder  
Helder  
   Wind: ONO 29.6 km/h<br />Gust to 29.6 km/h
Wind: ONO 29.6 km/h
Gust to 29.6 km/h
Temperatuur: 21°C
Dauwpunt: 7°C
Vochtigheid: 40%
Barometer: 1023 hPa
Zicht: meer dan 10 km
Bewolking: Helder
EHAM 311325Z 06016G26KT 020V100 CAVOK 21/07 Q1023 NOSIG
EHQE - Hoorn-A Sea, Netherlands
Afstand tot: WNW 50 km
Gewijzigd: 31-May-2020 15:25
Gedeeltelijk bewolkt  
Gedeeltelijk bewolkt  
   Wind: Noorden 42.6 km/h
Wind: Noorden 42.6 km/h
Temperatuur: 15°C
Dauwpunt: 11°C
Vochtigheid: 77%
Barometer: 1024 hPa
Bewolking: Gedeeltelijk bewolkt
Zicht: meer dan 10 km
Bewolking: Gedeeltelijk bewolkt
EHQE 311325Z AUTO 01023KT 9999 NSC 15/11 Q1024
EHVL - Vlieland Island, Netherlands
Afstand tot: N 58 km
Gewijzigd: 31-May-2020 15:25
Bewolking  
Bewolking  
   Wind: NO 40.7 km/h
Wind: NO 40.7 km/h
Temperatuur: 18°C
Dauwpunt: 8°C
Vochtigheid: 52%
Barometer: 1025 hPa
Bewolking: Bewolking
Zicht: meer dan 10 km
Bewolking: Bewolking 34000 ft
EHVL 311325Z AUTO 04022KT 9999 OVC340 18/08 Q1025 BLU
EHLW - Leeuwarden Rnlaf, Netherlands
Afstand tot: NO 85 km
Gewijzigd: 31-May-2020 15:25
Bewolking  
Bewolking  
   Wind: NO 31.5 km/h
Wind: NO 31.5 km/h
Temperatuur: 19°C
Dauwpunt: 7°C
Vochtigheid: 46%
Barometer: 1025 hPa
Bewolking: Bewolking
Zicht: meer dan 10 km
Bewolking: Bewolking 15000 ft
EHLW 311325Z AUTO 04017KT 360V070 9999 OVC150 19/07 Q1025 BLU
EHRD - Rotterdam Airpor, Netherlands
Afstand tot: ZZW 88 km
Gewijzigd: 31-May-2020 15:25
Gedeeltelijk bewolkt  
Gedeeltelijk bewolkt  
   Wind: ONO 24.1 km/h
Wind: ONO 24.1 km/h
Temperatuur: 21°C
Dauwpunt: 5°C
Vochtigheid: 35%
Barometer: 1022 hPa
Bewolking: Gedeeltelijk bewolkt
Zicht: meer dan 10 km
Bewolking: Gedeeltelijk bewolkt
EHRD 311325Z AUTO 07013KT 030V120 9999 NSC 21/05 Q1022 NOSIG
EHKV - K14-Fa-1c Sea, Netherlands
Afstand tot: NW 100 km
Gewijzigd: 31-May-2020 15:25
Gedeeltelijk bewolkt  
Gedeeltelijk bewolkt  
   Wind: NO 31.5 km/h
Wind: NO 31.5 km/h
Temperatuur: 14°C
Dauwpunt: 11°C
Vochtigheid: 82%
Bewolking: Gedeeltelijk bewolkt
Zicht: meer dan 10 km
Bewolking: Gedeeltelijk bewolkt
EHKV 311325Z AUTO 04017KT 9999 NSC 14/11 Q////
EHMG - L9-Ff-1 Sea, Netherlands
Afstand tot: N 101 km
Gewijzigd: 31-May-2020 15:25
Gedeeltelijk bewolkt  
Gedeeltelijk bewolkt  
   Wind: ONO 31.5 km/h
Wind: ONO 31.5 km/h
Temperatuur: 14°C
Dauwpunt: 10°C
Vochtigheid: 77%
Barometer: 1027 hPa
Bewolking: Gedeeltelijk bewolkt
Zicht: meer dan 10 km
Bewolking: Gedeeltelijk bewolkt
EHMG 311325Z AUTO 06017KT 9999 NSC 14/10 Q1027
EHDL - Deelen Rnlafb, Netherlands
Afstand tot: ZO 102 km
Gewijzigd: 31-May-2020 15:25
Bewolking  
Bewolking  
   Wind: varieert 25.9 km/h
Wind: varieert 25.9 km/h
Temperatuur: 21°C
Dauwpunt: 4°C
Vochtigheid: 33%
Barometer: 1023 hPa
Bewolking: Bewolking
Zicht: meer dan 10 km
Bewolking: Bewolking 34000 ft
EHDL 311325Z AUTO VRB14KT 9999 OVC340 21/04 Q1023 BLU
EHPG - P11-B Sea, Netherlands
Afstand tot: WZW 106 km
Gewijzigd: 31-May-2020 15:25
Gedeeltelijk bewolkt  
Gedeeltelijk bewolkt  
   Wind: NNO 18.5 km/h
Wind: NNO 18.5 km/h
Temperatuur: 14°C
Dauwpunt: 11°C
Vochtigheid: 82%
Barometer: 1024 hPa
Bewolking: Gedeeltelijk bewolkt
Zicht: meer dan 10 km
Bewolking: Gedeeltelijk bewolkt
EHPG 311325Z AUTO 03010KT 360V060 9999 NSC 14/11 Q1024
EHMA - Awg-1 Sea, Netherlands
Afstand tot: NO 116 km
Gewijzigd: 31-May-2020 15:25
Gedeeltelijk bewolkt  
Gedeeltelijk bewolkt  
   Wind: NNO 24.1 km/h
Wind: NNO 24.1 km/h
Temperatuur: 15°C
Dauwpunt: 8°C
Vochtigheid: 63%
Barometer: 1026 hPa
Bewolking: Gedeeltelijk bewolkt
Zicht: meer dan 10 km
Bewolking: Gedeeltelijk bewolkt
EHMA 311325Z AUTO 03013KT 9999 NSC 15/08 Q1026
EHSC - Goeree Le Sea, Netherlands
Afstand tot: ZW 116 km
Gewijzigd: 31-May-2020 15:25
  
  
   Wind: NO 38.9 km/h
Wind: NO 38.9 km/h
Temperatuur: 16°C
Dauwpunt: 10°C
Vochtigheid: 68%
Barometer: 1022 hPa
Zicht: meer dan 10 km
EHSC 311325Z AUTO 04021KT 9999 ///////// 16/10 Q1022 W14/H7
EHJR - K13-A Sea, Netherlands
Afstand tot: WNW 120 km
Gewijzigd: 31-May-2020 15:25
  
  
   Wind: ONO 29.6 km/h
Wind: ONO 29.6 km/h
Temperatuur: 14°C
Dauwpunt: 11°C
Vochtigheid: 82%
Barometer: 1026 hPa
EHJR 311325Z AUTO 07016KT //// // ///////// 14/11 Q1026 RE// W13/H5
EHGG - Groningen/Eelde, Netherlands
Afstand tot: ONO 126 km
Gewijzigd: 31-May-2020 15:25
Gedeeltelijk bewolkt  
Gedeeltelijk bewolkt  
   Wind: ONO 25.9 km/h
Wind: ONO 25.9 km/h
Temperatuur: 21°C
Dauwpunt: 7°C
Vochtigheid: 40%
Barometer: 1024 hPa
Bewolking: Gedeeltelijk bewolkt
Zicht: meer dan 10 km
Bewolking: Gedeeltelijk bewolkt
EHGG 311325Z AUTO 06014KT 030V110 9999 NSC 21/07 Q1024 NOSIG
EHGR - Gilze-Rijen Rnla, Netherlands
Afstand tot: Z 128 km
Gewijzigd: 31-May-2020 15:25
Bewolking  
Bewolking  
   Wind: varieert 20.4 km/h
Wind: varieert 20.4 km/h
Temperatuur: 22°C
Dauwpunt: 4°C
Vochtigheid: 31%
Barometer: 1022 hPa
Bewolking: Bewolking
Zicht: meer dan 10 km
Bewolking: Bewolking 34000 ft
EHGR 311325Z AUTO VRB11KT 9999 OVC340 22/04 Q1022 BLU
EHSA - Euro Platform, Netherlands
Afstand tot: ZW 130 km
Gewijzigd: 31-May-2020 15:25
  
  
   Wind: NNO 31.5 km/h
Wind: NNO 31.5 km/h
Temperatuur: 15°C
Dauwpunt: 10°C
Vochtigheid: 72%
Barometer: 1023 hPa
Zicht: meer dan 10 km
EHSA 311325Z AUTO 02017KT 9999 ///////// 15/10 Q1023 W11/H7
EHVK - Volkel Rnlafb, Netherlands
Afstand tot: ZZO 135 km
Gewijzigd: 31-May-2020 15:25
Bewolking  
Bewolking  
   Wind: Oosten 29.6 km/h
Wind: Oosten 29.6 km/h
Temperatuur: 21°C
Dauwpunt: 4°C
Vochtigheid: 33%
Barometer: 1022 hPa
Bewolking: Bewolking
Zicht: meer dan 10 km
Bewolking: Bewolking 35000 ft
EHVK 311325Z AUTO 09016KT 030V110 9999 OVC350 21/04 Q1022 BLU
EHWO - Woensdrecht Rnla, Netherlands
Afstand tot: ZZW 144 km
Gewijzigd: 31-May-2020 15:25
Bewolking  
Bewolking  
   Wind: Oosten 24.1 km/h
Wind: Oosten 24.1 km/h
Temperatuur: 21°C
Dauwpunt: 3°C
Vochtigheid: 31%
Barometer: 1021 hPa
Bewolking: Bewolking
Zicht: meer dan 10 km
Bewolking: Bewolking 34000 ft
EHWO 311325Z AUTO 09013KT 030V130 9999 OVC340 21/03 Q1021 BLU
EHEH - Eindhoven Rnlafb, Netherlands
Afstand tot: ZZO 146 km
Gewijzigd: 31-May-2020 15:25
Helder  
Helder  
   Wind: ONO 24.1 km/h
Wind: ONO 24.1 km/h
Temperatuur: 21°C
Dauwpunt: 4°C
Vochtigheid: 33%
Barometer: 1022 hPa
Bewolking: Helder
Zicht: meer dan 10 km
Bewolking: Helder
EHEH 311325Z AUTO 06013KT 010V120 9999 NCD 21/04 Q1022 BLU 07014G24KT CAVOK
EDLV - Niederrhein, Germany
Afstand tot: ZO 154 km
Gewijzigd: 29-May-2020 13:50
Verouderd
Helder  
Helder  
   Wind: varieert 7.4 km/h
Wind: varieert 7.4 km/h
Temperatuur: 21°C
Dauwpunt: 4°C
Vochtigheid: 33%
Barometer: 1027 hPa
Zicht: meer dan 10 km
Bewolking: Helder
EDLV 291150Z VRB04KT CAVOK 21/04 Q1027
 

Script ontwikkeld door  Saratoga-weather.org Aangepast voor de template door  Weerstation Leuven

U vindt ons ook hier:

Vereniging voor Weerkunde en Klimatologie

Het Weer Aktueel

WOW Nederland KNMI

UK Metoffice

European Weather Network

WeatherCloud

Weather Underground

Benelux Weer Netwerk

AWEKAS

WeatherlinkIP

Citizen Weather Observer Program (CWOP)

HAMweather, WeatherForYou, PWS Weather

        

Apparatuur in gebruik:

Weerstation
Davis - Vantage Veu

Weerprogramma
Meteobridge

Weercomputer
Carambola2 - MeteroBridge Pro (black)

Webleverancier
1Eurohosting

Hardwareleverancier 1
Uurwerk- & Meteospecialist Vlasma

Hardwareleverancier 2
Weerhuisje

Davis - Vantage Veu

Meteobridge

Carambola2 - MeteroBridge Pro (black)

1Eurohosting

Uurwerk- & Meteospecialist Vlasma

Weerhuisje


Alles over het weer rondom het weerstation van Meteo Oudkarspel, vind je hier. Dus alles onder 1 dak.

Everything about the weather around the Meteo Oudkarspel weather station can be found here. So everything under one roof..

Dus kom regelmatig terug, So come back regularly.


# #---------------------- version history # 3.20 2015-10-12 release 2.8b version